Time;durP1;ratioP1;P1;durP2;ratioP2;P2;SDS_P1;SDS_P2;PMS_P1;PMS_P2;Temp;Humidity;BMP_temperature;BMP_pressure;BME280_temperature;BME280_humidity;BME280_pressure;Samples;Min_cycle;Max_cycle;Signal;HPM_P1;HPM_P2
2023/07/24 00:00:52;;;;;;;12.70;7.53;;;;;;;21.24;100.00;101478.97;2533331;23;20150;-69
2023/07/24 00:01:52;;;;;;;11.60;7.50;;;;;;;21.28;100.00;101485.19;2533056;23;20229;-69
2023/07/24 00:02:53;;;;;;;12.10;7.70;;;;;;;20.87;100.00;101418.56;2533286;23;20154;-69
2023/07/24 00:03:56;;;;;;;9.80;7.53;;;;;;;21.36;100.00;101488.41;2531632;23;20150;-69
2023/07/24 00:04:56;;;;;;;8.00;7.17;;;;;;;21.40;100.00;101489.75;2533185;23;20178;-69
2023/07/24 00:05:59;;;;;;;9.33;7.67;;;;;;;21.34;100.00;101468.38;2532878;23;20741;-69
2023/07/24 00:07:00;;;;;;;10.17;7.30;;;;;;;20.82;100.00;101390.31;2533146;23;20153;-69
2023/07/24 00:08:01;;;;;;;8.47;6.93;;;;;;;21.41;100.00;101480.06;2532491;23;20392;-69
2023/07/24 00:09:02;;;;;;;8.00;6.83;;;;;;;20.85;100.00;101397.78;2519787;23;20664;-69
2023/07/24 00:10:03;;;;;;;9.70;7.37;;;;;;;21.43;100.00;101480.34;2520155;23;20819;-69
2023/07/24 00:11:07;;;;;;;8.27;7.37;;;;;;;21.44;100.00;101475.50;2520430;23;20159;-69
2023/07/24 00:12:08;;;;;;;8.97;7.37;;;;;;;21.43;100.00;101482.38;2520396;23;20791;-69
2023/07/24 00:13:08;;;;;;;8.53;6.70;;;;;;;21.09;100.00;101426.69;2532679;23;20473;-69
2023/07/24 00:14:09;;;;;;;13.03;7.47;;;;;;;21.41;100.00;101476.44;2532701;23;20150;-69
2023/07/24 00:15:09;;;;;;;20.77;8.37;;;;;;;21.39;100.00;101476.16;2533174;23;20154;-69
2023/07/24 00:16:10;;;;;;;21.17;8.20;;;;;;;21.40;100.00;101483.34;2532732;23;20233;-69
2023/07/24 00:17:11;;;;;;;19.60;8.13;;;;;;;21.36;100.00;101480.75;2533090;23;20178;-69
2023/07/24 00:18:11;;;;;;;24.20;8.43;;;;;;;21.38;100.00;101472.56;2518873;23;20178;-69
2023/07/24 00:19:11;;;;;;;16.30;7.40;;;;;;;21.30;100.00;101479.88;2519689;23;20151;-69
2023/07/24 00:20:12;;;;;;;14.87;7.77;;;;;;;21.23;100.00;101482.28;2532863;23;20150;-69
2023/07/24 00:21:13;;;;;;;9.13;7.90;;;;;;;21.21;100.00;101467.88;2532922;23;20234;-69
2023/07/24 00:22:13;;;;;;;8.97;7.30;;;;;;;20.49;100.00;101369.94;2532904;23;20227;-69
2023/07/24 00:23:14;;;;;;;9.93;7.90;;;;;;;21.20;100.00;101469.94;2519626;23;20159;-69
2023/07/24 00:24:14;;;;;;;12.03;7.73;;;;;;;21.02;100.00;101432.69;2519976;23;20626;-69
2023/07/24 00:25:15;;;;;;;9.83;7.63;;;;;;;21.17;100.00;101458.84;2532956;23;20150;-69
2023/07/24 00:26:15;;;;;;;10.70;8.17;;;;;;;21.19;100.00;101464.78;2519736;23;20225;-69
2023/07/24 00:27:15;;;;;;;11.13;8.37;;;;;;;21.25;100.00;101469.28;2520226;23;20186;-69
2023/07/24 00:28:16;;;;;;;9.93;8.07;;;;;;;21.13;100.00;101447.00;2532334;23;20159;-69
2023/07/24 00:29:16;;;;;;;11.77;7.27;;;;;;;21.23;100.00;101454.88;2532632;23;20158;-69
2023/07/24 00:30:17;;;;;;;11.50;8.07;;;;;;;21.26;100.00;101455.94;2519975;23;20162;-69
2023/07/24 00:31:17;;;;;;;14.87;8.07;;;;;;;21.29;100.00;101458.56;2520324;23;20617;-69
2023/07/24 00:32:17;;;;;;;17.90;8.93;;;;;;;21.35;100.00;101456.59;2532641;23;20155;-69
2023/07/24 00:33:18;;;;;;;12.17;8.13;;;;;;;21.39;100.00;101457.19;2532129;23;20499;-69
2023/07/24 00:34:18;;;;;;;18.57;8.63;;;;;;;21.41;100.00;101465.97;2532521;23;20154;-69
2023/07/24 00:35:19;;;;;;;15.40;8.67;;;;;;;21.43;100.00;101454.16;2533315;23;20181;-69
2023/07/24 00:36:19;;;;;;;20.83;8.10;;;;;;;21.45;100.00;101458.06;2532842;23;20150;-69
2023/07/24 00:37:19;;;;;;;20.03;8.00;;;;;;;21.07;100.00;101398.19;2533055;23;20744;-69
2023/07/24 00:38:20;;;;;;;14.70;7.77;;;;;;;21.49;100.00;101464.28;2532410;23;20185;-69
2023/07/24 00:39:20;;;;;;;14.07;7.40;;;;;;;21.51;100.00;101456.13;2532458;23;20158;-69
2023/07/24 00:40:21;;;;;;;15.63;7.73;;;;;;;21.51;100.00;101455.34;2532691;23;20154;-69
2023/07/24 00:41:21;;;;;;;12.80;7.13;;;;;;;21.50;100.00;101465.06;2520065;23;20190;-69
2023/07/24 00:42:21;;;;;;;13.87;7.13;;;;;;;21.52;100.00;101456.91;2519997;23;20608;-69
2023/07/24 00:43:22;;;;;;;10.30;7.00;;;;;;;21.54;100.00;101468.47;2532689;23;20593;-69
2023/07/24 00:44:22;;;;;;;12.17;7.50;;;;;;;21.56;100.00;101463.91;2532689;23;20157;-69
2023/07/24 00:45:23;;;;;;;13.50;7.70;;;;;;;21.58;100.00;101461.38;2533130;23;20154;-69
2023/07/24 00:46:24;;;;;;;15.50;7.40;;;;;;;21.59;100.00;101465.75;2519770;23;20283;-69
2023/07/24 00:47:27;;;;;;;10.50;6.73;;;;;;;21.58;100.00;101460.56;2519021;23;20694;-69
2023/07/24 00:48:27;;;;;;;11.10;7.10;;;;;;;21.29;100.00;101424.72;2532298;23;20154;-69
2023/07/24 00:49:28;;;;;;;10.73;7.53;;;;;;;21.27;100.00;101426.47;2532506;23;20581;-69
2023/07/24 00:50:29;;;;;;;12.97;7.97;;;;;;;21.61;100.00;101476.53;2532724;23;20157;-69
2023/07/24 00:51:30;;;;;;;9.27;7.13;;;;;;;21.49;100.00;101447.38;2531967;23;20166;-69
2023/07/24 00:52:31;;;;;;;10.27;7.53;;;;;;;21.58;100.00;101466.22;2532809;23;20272;-69
2023/07/24 00:53:32;;;;;;;8.80;7.00;;;;;;;21.23;100.00;101406.19;2532858;23;20150;-69
2023/07/24 00:54:33;;;;;;;13.57;6.73;;;;;;;21.58;100.00;101461.38;2532531;23;20151;-69
2023/07/24 00:55:34;;;;;;;9.57;6.50;;;;;;;21.59;100.00;101454.47;2533078;23;20668;-69
2023/07/24 00:56:34;;;;;;;10.93;7.37;;;;;;;21.59;100.00;101464.97;2532630;23;20619;-69
2023/07/24 00:57:35;;;;;;;8.97;6.77;;;;;;;21.58;100.00;101463.41;2532707;23;20179;-69
2023/07/24 00:58:38;;;;;;;8.07;7.27;;;;;;;21.59;100.00;101456.50;2532395;23;20150;-69
2023/07/24 00:59:39;;;;;;;10.13;7.30;;;;;;;21.56;100.00;101465.94;2532557;23;20163;-69
2023/07/24 01:00:40;;;;;;;8.00;7.10;;;;;;;21.54;100.00;101472.06;2532614;23;20651;-69
2023/07/24 01:01:42;;;;;;;10.53;7.13;;;;;;;20.93;100.00;101373.63;2532346;23;20237;-69
2023/07/24 01:02:43;;;;;;;12.13;7.07;;;;;;;21.54;100.00;101468.47;2533022;23;20160;-69
2023/07/24 01:03:44;;;;;;;13.77;7.43;;;;;;;21.49;100.00;101455.81;2519127;23;20166;-69
2023/07/24 01:04:44;;;;;;;12.27;8.13;;;;;;;21.20;100.00;101413.56;2519992;23;20230;-69
2023/07/24 01:05:45;;;;;;;13.67;8.10;;;;;;;21.55;100.00;101467.97;2519756;23;20228;-69
2023/07/24 01:06:45;;;;;;;11.20;8.17;;;;;;;21.42;100.00;101442.13;2533005;23;20154;-69
2023/07/24 01:07:45;;;;;;;11.57;7.33;;;;;;;21.21;100.00;101406.66;2532175;23;20147;-69
2023/07/24 01:08:46;;;;;;;11.33;7.73;;;;;;;21.56;100.00;101458.28;2519991;23;20171;-69
2023/07/24 01:09:47;;;;;;;11.80;7.60;;;;;;;21.53;100.00;101456.41;2519996;23;20648;-69
2023/07/24 01:10:47;;;;;;;23.53;7.43;;;;;;;21.41;100.00;101448.25;2532395;23;20158;-69
2023/07/24 01:12:01;;;;;;;16.83;7.07;;;;;;;21.08;100.00;101411.81;2532685;23;20186;-69
2023/07/24 01:13:22;;;;;;;20.33;7.57;;;;;;;21.22;100.00;101458.16;2532210;23;20158;-69
2023/07/24 01:14:27;;;;;;;10.37;6.53;;;;;;;21.06;100.00;101436.88;2532651;23;20143;-69
2023/07/24 01:15:37;;;;;;;12.53;7.30;;;;;;;21.12;100.00;101462.34;2532207;23;20178;-69
2023/07/24 01:16:42;;;;;;;7.83;6.87;;;;;;;20.70;100.00;101405.44;2533042;23;20164;-69
2023/07/24 01:17:48;;;;;;;11.50;7.40;;;;;;;20.50;100.00;101371.50;2532359;23;20454;-69
2023/07/24 01:18:52;;;;;;;9.27;6.33;;;;;;;20.99;100.00;101456.22;2532944;23;20466;-69
2023/07/24 01:19:57;;;;;;;9.53;7.43;;;;;;;20.53;100.00;101401.53;2532659;23;20393;-69
2023/07/24 01:21:00;;;;;;;8.27;6.90;;;;;;;20.82;100.00;101457.91;2532558;23;20147;-69
2023/07/24 01:22:24;;;;;;;10.57;7.13;;;;;;;20.80;100.00;101468.88;2532671;23;20634;-69
2023/07/24 01:23:36;;;;;;;11.60;7.20;;;;;;;20.77;100.00;101461.41;2519465;23;20151;-69
2023/07/24 01:24:47;;;;;;;11.73;7.13;;;;;;;20.68;100.00;101453.03;2522161;23;20158;-69
2023/07/24 01:25:54;;;;;;;9.97;7.23;;;;;;;20.63;100.00;101456.50;2532643;23;20241;-69
2023/07/24 01:26:54;;;;;;;11.13;7.63;;;;;;;20.29;100.00;101415.63;2533171;23;20151;-69
2023/07/24 01:27:55;;;;;;;11.83;7.27;;;;;;;20.63;100.00;101459.31;2532046;23;20453;-69
2023/07/24 01:28:55;;;;;;;9.10;7.27;;;;;;;20.66;100.00;101461.16;2532865;23;20241;-69
2023/07/24 01:29:56;;;;;;;9.33;7.30;;;;;;;20.66;100.00;101463.97;2532217;23;20229;-69
2023/07/24 01:30:57;;;;;;;10.33;7.30;;;;;;;20.67;100.00;101462.75;2532387;23;20237;-69
2023/07/24 01:31:57;;;;;;;13.37;7.40;;;;;;;20.25;100.00;101400.94;2532446;23;20181;-69
2023/07/24 01:32:58;;;;;;;11.03;7.43;;;;;;;20.73;100.00;101469.25;2532602;23;20373;-69
2023/07/24 01:33:58;;;;;;;9.70;6.90;;;;;;;20.70;100.00;101464.56;2532744;23;20589;-69
2023/07/24 01:34:59;;;;;;;11.87;7.47;;;;;;;20.13;100.00;101373.06;2532812;23;20234;-69
2023/07/24 01:36:02;;;;;;;10.43;7.03;;;;;;;20.74;100.00;101460.34;2532659;23;20150;-69
2023/07/24 01:37:03;;;;;;;13.67;7.40;;;;;;;20.72;100.00;101467.72;2532704;23;20157;-69
2023/07/24 01:38:04;;;;;;;12.73;7.70;;;;;;;20.35;100.00;101416.50;2519210;23;20169;-69
2023/07/24 01:39:05;;;;;;;13.47;7.53;;;;;;;20.67;100.00;101471.94;2520012;23;20617;-69
2023/07/24 01:40:10;;;;;;;11.10;7.33;;;;;;;20.73;100.00;101470.00;2532432;23;20779;-69
2023/07/24 01:41:10;;;;;;;11.37;6.80;;;;;;;20.75;100.00;101473.16;2532314;23;20515;-69
2023/07/24 01:42:12;;;;;;;12.50;7.70;;;;;;;20.80;100.00;101471.69;2532628;23;20374;-69
2023/07/24 01:43:14;;;;;;;14.13;7.30;;;;;;;20.78;100.00;101466.53;2532345;23;20198;-69
2023/07/24 01:44:14;;;;;;;9.63;7.63;;;;;;;20.78;100.00;101463.72;2518939;23;20475;-69
2023/07/24 01:45:14;;;;;;;12.80;7.43;;;;;;;20.79;100.00;101461.69;2519988;23;20158;-69
2023/07/24 01:46:15;;;;;;;9.77;7.33;;;;;;;20.80;100.00;101457.59;2532431;23;20154;-69
2023/07/24 01:47:15;;;;;;;13.00;7.27;;;;;;;20.53;100.00;101421.22;2532745;23;20185;-69
2023/07/24 01:48:16;;;;;;;13.07;8.03;;;;;;;20.79;100.00;101467.31;2532062;23;20615;-69
2023/07/24 01:49:16;;;;;;;15.23;7.90;;;;;;;20.81;100.00;101464.78;2532831;23;20609;-69
2023/07/24 01:50:17;;;;;;;10.43;8.10;;;;;;;20.72;100.00;101453.63;2532538;23;20613;-69
2023/07/24 01:51:17;;;;;;;12.83;8.20;;;;;;;20.83;100.00;101473.56;2532357;23;20238;-69
2023/07/24 01:52:17;;;;;;;10.73;8.53;;;;;;;20.85;100.00;101483.09;2532407;23;20671;-69
2023/07/24 01:53:18;;;;;;;14.70;8.53;;;;;;;20.86;100.00;101469.75;2531894;23;20921;-69
2023/07/24 01:54:18;;;;;;;11.63;7.90;;;;;;;20.82;100.00;101469.94;2532441;23;20150;-69
2023/07/24 01:55:19;;;;;;;11.00;7.60;;;;;;;20.85;100.00;101483.09;2532769;23;20150;-69
2023/07/24 01:56:19;;;;;;;9.53;7.00;;;;;;;20.74;100.00;101462.34;2532062;23;20166;-69
2023/07/24 01:57:19;;;;;;;9.30;7.47;;;;;;;20.75;100.00;101466.72;2532690;23;20186;-69
2023/07/24 01:58:20;;;;;;;8.50;7.47;;;;;;;20.85;100.00;101480.25;2531456;23;20155;-69
2023/07/24 01:59:20;;;;;;;9.40;7.70;;;;;;;20.85;100.00;101485.09;2531824;23;20253;-69
2023/07/24 02:00:21;;;;;;;12.70;7.30;;;;;;;20.87;100.00;101480.56;2532658;23;20676;-69
2023/07/24 02:01:21;;;;;;;13.27;7.07;;;;;;;20.90;100.00;101473.19;2532459;23;20481;-69
2023/07/24 02:02:22;;;;;;;9.57;7.17;;;;;;;20.93;100.00;101477.88;2532174;23;20178;-69
2023/07/24 02:03:22;;;;;;;11.40;7.30;;;;;;;20.59;100.00;101419.28;2532369;23;20213;-69
2023/07/24 02:04:23;;;;;;;11.03;7.57;;;;;;;20.98;100.00;101474.41;2532438;23;20185;-69
2023/07/24 02:05:23;;;;;;;9.80;7.97;;;;;;;20.96;100.00;101469.22;2532559;23;20158;-69
2023/07/24 02:06:23;;;;;;;10.00;7.77;;;;;;;20.92;100.00;101467.84;2532368;23;20597;-69
2023/07/24 02:07:24;;;;;;;9.67;7.43;;;;;;;20.90;100.00;101474.00;2532781;23;20153;-69
2023/07/24 02:08:24;;;;;;;12.10;7.40;;;;;;;20.90;100.00;101473.19;2532047;23;20158;-69
2023/07/24 02:09:25;;;;;;;12.30;7.80;;;;;;;20.59;100.00;101424.94;2532855;23;20229;-69
2023/07/24 02:10:25;;;;;;;11.97;8.17;;;;;;;20.91;100.00;101471.94;2532452;23;20157;-69
2023/07/24 02:11:25;;;;;;;13.40;8.20;;;;;;;20.87;100.00;101471.34;2532585;23;20154;-69
2023/07/24 02:12:26;;;;;;;12.97;7.93;;;;;;;20.34;100.00;101391.66;2532134;23;20174;-69
2023/07/24 02:13:26;;;;;;;10.20;7.87;;;;;;;20.81;100.00;101474.03;2531748;23;20234;-69
2023/07/24 02:14:27;;;;;;;11.87;8.37;;;;;;;20.76;100.00;101471.88;2532362;23;20147;-69
2023/07/24 02:15:28;;;;;;;12.97;7.90;;;;;;;20.84;100.00;101477.94;2532717;23;20503;-69
2023/07/24 02:16:28;;;;;;;13.30;8.70;;;;;;;20.88;100.00;101475.69;2519709;23;20445;-69
2023/07/24 02:17:29;;;;;;;13.87;8.33;;;;;;;20.88;100.00;101476.47;2519579;23;20548;-69
2023/07/24 02:18:29;;;;;;;13.83;7.90;;;;;;;20.91;100.00;101480.38;2519123;23;20575;-69
2023/07/24 02:19:30;;;;;;;18.03;8.20;;;;;;;20.57;100.00;101410.56;2519828;23;20207;-69
2023/07/24 02:20:30;;;;;;;15.30;8.20;;;;;;;20.95;100.00;101467.69;2532709;23;20393;-69
2023/07/24 02:21:31;;;;;;;14.63;7.90;;;;;;;20.98;100.00;101457.50;2532701;23;20389;-69
2023/07/24 02:22:32;;;;;;;11.00;7.87;;;;;;;20.97;100.00;101464.34;2532063;23;20155;-69
2023/07/24 02:23:33;;;;;;;13.47;8.50;;;;;;;20.91;100.00;101464.28;2532204;23;20233;-69
2023/07/24 02:24:33;;;;;;;11.90;7.83;;;;;;;20.88;100.00;101455.97;2532439;23;20157;-69
2023/07/24 02:25:35;;;;;;;14.73;8.90;;;;;;;20.58;100.00;101412.13;2532520;23;20150;-69
2023/07/24 02:26:36;;;;;;;11.33;8.20;;;;;;;20.95;100.00;101461.25;2532368;23;20501;-69
2023/07/24 02:27:36;;;;;;;9.03;7.50;;;;;;;20.97;100.00;101458.72;2531539;23;20461;-69
2023/07/24 02:28:36;;;;;;;13.13;7.67;;;;;;;20.97;100.00;101455.91;2519474;23;20159;-69
2023/07/24 02:29:37;;;;;;;15.30;8.10;;;;;;;20.95;100.00;101466.91;2519581;23;20543;-69
2023/07/24 02:30:39;;;;;;;11.40;8.00;;;;;;;20.97;100.00;101461.53;2532493;23;20661;-69
2023/07/24 02:31:39;;;;;;;14.63;8.33;;;;;;;20.88;100.00;101450.34;2532463;23;20577;-69
2023/07/24 02:32:40;;;;;;;10.73;7.40;;;;;;;20.98;100.00;101457.50;2532021;23;20804;-69
2023/07/24 02:33:40;;;;;;;18.40;8.17;;;;;;;21.01;100.00;101464.94;2532126;23;20150;-69
2023/07/24 02:34:41;;;;;;;16.63;7.73;;;;;;;21.01;100.00;101457.28;2531866;23;20559;-69
2023/07/24 02:35:42;;;;;;;14.27;7.83;;;;;;;20.86;100.00;101442.38;2532318;23;20177;-69
2023/07/24 02:36:42;;;;;;;12.40;7.80;;;;;;;21.05;100.00;101466.34;2532614;23;20233;-69
2023/07/24 02:37:42;;;;;;;9.77;7.27;;;;;;;21.14;100.00;101474.69;2531866;23;20437;-69
2023/07/24 02:38:43;;;;;;;14.87;7.57;;;;;;;21.17;100.00;101485.00;2532690;23;20188;-69
2023/07/24 02:39:43;;;;;;;10.97;7.47;;;;;;;21.14;100.00;101480.31;2532466;23;20213;-69
2023/07/24 02:40:45;;;;;;;8.60;7.00;;;;;;;20.84;100.00;101436.47;2532688;23;20162;-69
2023/07/24 02:41:45;;;;;;;9.30;7.20;;;;;;;21.04;100.00;101478.84;2532067;23;20234;-69
2023/07/24 02:42:46;;;;;;;9.13;7.20;;;;;;;21.04;100.00;101484.47;2532320;23;20165;-69
2023/07/24 02:43:46;;;;;;;12.30;7.37;;;;;;;21.09;100.00;101488.69;2531358;23;20158;-69
2023/07/24 02:44:46;;;;;;;11.50;6.90;;;;;;;21.13;100.00;101484.41;2532713;23;20150;-69
2023/07/24 02:45:47;;;;;;;11.00;6.47;;;;;;;20.90;100.00;101436.56;2532316;23;20162;-69
2023/07/24 02:46:47;;;;;;;12.87;7.50;;;;;;;21.15;100.00;101469.84;2532749;23;20182;-69
2023/07/24 02:47:48;;;;;;;16.03;8.07;;;;;;;21.03;100.00;101459.63;2532015;23;20624;-69
2023/07/24 02:48:48;;;;;;;17.37;8.00;;;;;;;21.24;100.00;101478.97;2532459;23;20236;-69
2023/07/24 02:49:49;;;;;;;16.73;7.23;;;;;;;21.22;100.00;101487.16;2532573;23;20154;-69
2023/07/24 02:50:49;;;;;;;13.07;8.03;;;;;;;21.21;100.00;101484.81;2532572;23;20241;-69
2023/07/24 02:51:50;;;;;;;16.73;7.80;;;;;;;21.16;100.00;101485.47;2532314;23;20593;-69
2023/07/24 02:52:50;;;;;;;13.67;8.00;;;;;;;21.17;100.00;101482.19;2532238;23;20601;-69
2023/07/24 02:53:54;;;;;;;13.47;8.07;;;;;;;20.65;100.00;101409.69;2531720;23;20499;-69
2023/07/24 02:54:54;;;;;;;10.50;7.87;;;;;;;21.17;100.00;101493.47;2532467;23;20592;-69
2023/07/24 02:55:54;;;;;;;15.90;8.33;;;;;;;21.21;100.00;101498.91;2531902;23;20621;-69
2023/07/24 02:56:55;;;;;;;18.23;8.73;;;;;;;21.21;100.00;101494.06;2532597;23;20150;-69
2023/07/24 02:57:55;;;;;;;12.80;8.10;;;;;;;21.26;100.00;101499.00;2532015;23;20540;-69
2023/07/24 02:58:56;;;;;;;13.10;7.77;;;;;;;21.26;100.00;101498.22;2532913;23;20257;-69
2023/07/24 02:59:56;;;;;;;13.63;8.00;;;;;;;20.86;100.00;101441.59;2532374;23;20147;-69
2023/07/24 03:01:05;;;;;;;14.23;7.47;;;;;;;21.31;100.00;101497.53;2519683;23;20187;-69
2023/07/24 03:02:06;;;;;;;15.83;7.93;;;;;;;21.30;100.00;101493.97;2521328;23;20147;-69
2023/07/24 03:03:06;;;;;;;12.67;7.80;;;;;;;21.31;100.00;101489.09;2531889;23;20490;-69
2023/07/24 03:04:07;;;;;;;10.17;7.47;;;;;;;21.32;100.00;101485.00;2532268;23;20299;-69
2023/07/24 03:05:08;;;;;;;12.27;7.80;;;;;;;21.08;100.00;101456.91;2532436;23;20652;-69
2023/07/24 03:06:08;;;;;;;14.30;8.07;;;;;;;21.33;100.00;101481.69;2532318;23;20155;-69
2023/07/24 03:07:08;;;;;;;11.03;8.27;;;;;;;21.15;100.00;101461.38;2532661;23;20170;-69
2023/07/24 03:08:09;;;;;;;11.30;7.87;;;;;;;21.28;100.00;101476.75;2531953;23;20266;-69
2023/07/24 03:09:09;;;;;;;10.70;7.43;;;;;;;21.39;100.00;101491.03;2532602;23;20147;-69
2023/07/24 03:10:10;;;;;;;10.87;7.70;;;;;;;21.38;100.00;101495.13;2531725;23;20158;-69
2023/07/24 03:11:10;;;;;;;12.20;8.03;;;;;;;21.43;100.00;101500.06;2533019;23;20205;-69
2023/07/24 03:12:11;;;;;;;12.57;8.13;;;;;;;21.01;100.00;101445.22;2533205;23;20154;-69
2023/07/24 03:13:11;;;;;;;11.33;8.47;;;;;;;21.38;100.00;101489.47;2532964;23;20178;-69
2023/07/24 03:14:11;;;;;;;11.33;7.73;;;;;;;21.48;100.00;101505.03;2532748;23;20154;-69
2023/07/24 03:15:12;;;;;;;12.07;8.00;;;;;;;21.51;100.00;101495.63;2533116;23;20225;-69
2023/07/24 03:16:12;;;;;;;10.27;7.70;;;;;;;21.21;100.00;101450.97;2533279;23;20154;-69
2023/07/24 03:17:13;;;;;;;13.67;7.83;;;;;;;21.48;100.00;101496.56;2533323;23;20182;-69
2023/07/24 03:18:13;;;;;;;13.43;8.00;;;;;;;21.48;100.00;101490.94;2532803;23;20313;-69
2023/07/24 03:19:14;;;;;;;12.80;8.37;;;;;;;21.49;100.00;101491.72;2533376;23;20608;-69
2023/07/24 03:20:17;;;;;;;12.40;7.97;;;;;;;21.36;100.00;101460.22;2533369;23;20604;-69
2023/07/24 03:21:18;;;;;;;13.63;7.97;;;;;;;21.57;100.00;101482.38;2520532;23;20156;-69
2023/07/24 03:22:19;;;;;;;11.37;8.00;;;;;;;21.60;100.00;101484.22;2520336;23;20388;-69
2023/07/24 03:23:20;;;;;;;11.10;7.93;;;;;;;21.54;100.00;101469.25;2532868;23;20202;-69
2023/07/24 03:24:20;;;;;;;10.37;7.77;;;;;;;21.42;100.00;101461.88;2532010;23;20151;-69
2023/07/24 03:25:21;;;;;;;11.47;8.00;;;;;;;21.63;100.00;101485.28;2533254;23;20155;-69
2023/07/24 03:26:21;;;;;;;11.87;8.07;;;;;;;21.69;100.00;101481.31;2532982;23;20281;-69
2023/07/24 03:27:21;;;;;;;11.10;7.53;;;;;;;21.38;100.00;101435.91;2533318;23;20229;-69
2023/07/24 03:28:22;;;;;;;11.10;7.77;;;;;;;21.77;100.00;101485.31;2532636;23;20151;-69
2023/07/24 03:29:22;;;;;;;11.60;7.70;;;;;;;21.83;100.00;101482.56;2533375;23;20193;-69
2023/07/24 03:30:23;;;;;;;10.40;8.17;;;;;;;21.84;100.00;101481.28;2520221;23;20247;-69
2023/07/24 03:31:23;;;;;;;9.47;7.40;;;;;;;21.90;100.00;101482.19;2520495;23;20151;-69
2023/07/24 03:32:23;;;;;;;8.70;7.53;;;;;;;21.92;100.00;101486.06;2532910;23;20209;-69
2023/07/24 03:33:24;;;;;;;10.03;7.17;;;;;;;21.60;100.00;101429.84;2533070;23;20569;-69
2023/07/24 03:34:24;;;;;;;10.50;7.27;;;;;;;21.97;100.00;101487.41;2532790;23;20158;-69
2023/07/24 03:35:25;;;;;;;10.40;7.20;;;;;;;21.98;100.00;101488.94;2533073;23;20158;-69
2023/07/24 03:36:25;;;;;;;11.43;7.60;;;;;;;22.04;100.00;101484.16;2533192;23;20156;-69
2023/07/24 03:37:26;;;;;;;9.90;7.37;;;;;;;22.07;100.00;101486.81;2533294;23;20206;-69
2023/07/24 03:38:26;;;;;;;9.63;7.20;;;;;;;21.77;100.00;101423.25;2531908;23;20209;-69
2023/07/24 03:39:26;;;;;;;10.30;7.30;;;;;;;21.59;100.00;101400.88;2533453;23;20234;-69
2023/07/24 03:40:27;;;;;;;8.83;7.27;;;;;;;22.20;100.00;101489.28;2533059;23;20151;-69
2023/07/24 03:41:27;;;;;;;9.67;7.50;;;;;;;22.13;100.00;101479.19;2520528;23;20158;-69
2023/07/24 03:42:30;;;;;;;8.70;7.10;;;;;;;22.22;100.00;101495.97;2520225;23;20166;-69
2023/07/24 03:43:30;;;;;;;9.37;7.67;;;;;;;22.10;100.00;101468.88;2533014;23;20154;-69
2023/07/24 03:44:31;;;;;;;9.33;7.23;;;;;;;21.95;100.00;101439.16;2532493;23;20158;-69
2023/07/24 03:45:31;;;;;;;12.43;7.67;;;;;;;21.85;100.00;101420.78;2532917;23;20158;-69
2023/07/24 03:46:32;;;;;;;8.70;7.17;;;;;;;22.25;100.00;101466.78;2533049;23;20161;-69
2023/07/24 03:47:33;;;;;;;8.00;6.60;;;;;;;21.84;100.00;101393.81;2533058;23;20619;-69
2023/07/24 03:48:34;;;;;;;12.20;7.67;;;;;;;22.37;100.00;101468.47;2532485;23;20497;-69
2023/07/24 03:49:35;;;;;;;9.13;7.27;;;;;;;22.09;100.00;101416.50;2533274;23;20189;-69
2023/07/24 03:50:35;;;;;;;10.57;7.30;;;;;;;22.53;100.00;101475.66;2533177;23;20154;-69
2023/07/24 03:51:35;;;;;;;10.73;7.63;;;;;;;22.03;100.00;101401.56;2533202;23;20226;-69
2023/07/24 03:52:36;;;;;;;10.93;7.60;;;;;;;22.61;100.00;101476.78;2532696;23;20194;-69
2023/07/24 03:53:36;;;;;;;9.23;7.03;;;;;;;22.37;100.00;101428.16;2532015;23;20209;-69
2023/07/24 03:54:37;;;;;;;7.87;7.07;;;;;;;22.32;100.00;101428.88;2532899;23;20231;-69
2023/07/24 03:55:37;;;;;;;10.60;7.17;;;;;;;22.74;100.00;101471.53;2532751;23;20605;-69
2023/07/24 03:56:38;;;;;;;12.97;7.47;;;;;;;22.74;100.00;101472.31;2533233;23;20178;-69
2023/07/24 03:57:38;;;;;;;9.37;7.17;;;;;;;22.71;100.00;101459.19;2532703;23;20185;-69
2023/07/24 03:58:39;;;;;;;9.47;7.43;;;;;;;22.77;100.00;101464.91;2533084;23;20157;-69
2023/07/24 03:59:40;;;;;;;9.53;7.33;;;;;;;22.80;100.00;101463.91;2532884;23;20155;-69
2023/07/24 04:00:40;;;;;;;10.40;7.43;;;;;;;22.79;100.00;101465.97;2520072;23;20166;-69
2023/07/24 04:01:41;;;;;;;10.80;7.70;;;;;;;22.74;100.00;101458.19;2520046;23;20692;-69
2023/07/24 04:02:41;;;;;;;10.77;7.40;;;;;;;22.84;100.00;101464.47;2533315;23;20151;-69
2023/07/24 04:03:42;;;;;;;9.77;7.27;;;;;;;22.89;100.00;101475.06;2532454;23;20158;-69
2023/07/24 04:04:42;;;;;;;7.70;6.70;;;;;;;22.91;100.00;101478.94;2533277;23;20154;-69
2023/07/24 04:05:43;;;;;;;10.33;7.20;;;;;;;22.92;100.00;101474.81;2532106;23;20205;-69
2023/07/24 04:06:45;;;;;;;10.57;7.20;;;;;;;22.97;100.00;101474.13;2533390;23;20160;-69
2023/07/24 04:07:45;;;;;;;9.67;7.37;;;;;;;23.06;100.00;101476.00;2531563;23;20237;-69
2023/07/24 04:08:46;;;;;;;12.40;7.30;;;;;;;23.02;100.00;101473.41;2533211;23;20150;-69
2023/07/24 04:09:46;;;;;;;11.30;7.17;;;;;;;23.09;100.00;101480.66;2532930;23;20150;-69
2023/07/24 04:10:46;;;;;;;7.87;7.07;;;;;;;22.60;100.00;101396.09;2533269;23;20151;-69
2023/07/24 04:11:47;;;;;;;8.27;7.20;;;;;;;23.18;100.00;101477.72;2532894;23;20182;-69
2023/07/24 04:12:47;;;;;;;10.93;7.13;;;;;;;23.24;100.00;101479.31;2533365;23;20165;-69
2023/07/24 04:13:48;;;;;;;11.80;7.90;;;;;;;23.19;100.00;101465.13;2532391;23;20610;-69
2023/07/24 04:14:48;;;;;;;9.40;6.93;;;;;;;22.79;100.00;101400.97;2533435;23;20205;-69
2023/07/24 04:15:50;;;;;;;12.27;7.23;;;;;;;23.33;100.00;101478.38;2532270;23;20237;-69
2023/07/24 04:16:50;;;;;;;12.30;7.30;;;;;;;23.38;100.00;101486.91;2533209;23;20605;-69
2023/07/24 04:17:51;;;;;;;8.17;7.33;;;;;;;23.40;100.00;101477.91;2532328;23;20537;-69
2023/07/24 04:18:51;;;;;;;9.37;7.80;;;;;;;23.47;100.00;101488.78;2533046;23;20157;-69
2023/07/24 04:19:51;;;;;;;11.03;7.97;;;;;;;23.47;100.00;101486.72;2532822;23;20234;-69
2023/07/24 04:20:52;;;;;;;10.03;8.57;;;;;;;23.48;100.00;101488.28;2533038;23;20205;-69
2023/07/24 04:21:52;;;;;;;9.73;8.17;;;;;;;23.18;100.00;101440.94;2531644;23;20151;-69
2023/07/24 04:22:53;;;;;;;9.00;7.93;;;;;;;23.55;100.00;101495.53;2532907;23;20215;-69
2023/07/24 04:23:53;;;;;;;9.33;7.60;;;;;;;23.56;100.00;101495.06;2532472;23;20154;-69
2023/07/24 04:24:54;;;;;;;8.77;7.80;;;;;;;23.63;100.00;101499.47;2533209;23;20154;-69
2023/07/24 04:25:54;;;;;;;9.97;8.80;;;;;;;23.69;100.00;101492.56;2532088;23;20214;-69
2023/07/24 04:26:55;;;;;;;10.57;8.30;;;;;;;23.70;100.00;101496.19;2520170;23;20165;-69
2023/07/24 04:27:55;;;;;;;12.20;7.73;;;;;;;23.71;100.00;101492.06;2519375;23;20594;-69
2023/07/24 04:28:55;;;;;;;8.90;8.00;;;;;;;23.66;100.00;101490.75;2519994;23;20567;-69
2023/07/24 04:29:56;;;;;;;11.27;8.27;;;;;;;23.82;100.00;101495.00;2519661;23;20162;-69
2023/07/24 04:31:00;;;;;;;9.47;8.20;;;;;;;23.79;100.00;101488.28;2533302;23;20181;-69
2023/07/24 04:32:01;;;;;;;9.47;8.40;;;;;;;23.89;100.00;101497.41;2532958;23;20155;-69
2023/07/24 04:33:01;;;;;;;9.33;8.43;;;;;;;23.70;100.00;101460.16;2532517;23;20178;-69
2023/07/24 04:34:02;;;;;;;11.33;8.27;;;;;;;23.90;100.00;101488.38;2532987;23;20154;-70
2023/07/24 04:35:03;;;;;;;11.47;8.47;;;;;;;23.70;100.00;101454.50;2520072;23;20213;-69
2023/07/24 04:36:03;;;;;;;9.87;8.50;;;;;;;23.93;100.00;101484.56;2518897;23;20230;-69
2023/07/24 04:37:04;;;;;;;11.50;9.33;;;;;;;23.97;100.00;101484.31;2532856;23;20146;-69
2023/07/24 04:38:04;;;;;;;10.73;8.33;;;;;;;24.02;100.00;101483.59;2532332;23;20170;-69
2023/07/24 04:39:05;;;;;;;11.53;8.57;;;;;;;24.02;100.00;101487.19;2520122;23;20151;-69